sensor_id;sensor_type;location;lat;lon;timestamp;temperature;humidity
43808;DHT22;29438;50.664;10.098;2023-02-15T00:01:08;-3272.70;94.10
43808;DHT22;29438;50.664;10.098;2023-02-15T00:03:34;-3272.80;94.20
43808;DHT22;29438;50.664;10.098;2023-02-15T00:06:00;-3272.70;94.10
43808;DHT22;29438;50.664;10.098;2023-02-15T00:08:26;-3272.60;94.00
43808;DHT22;29438;50.664;10.098;2023-02-15T00:10:51;-3272.60;94.00
43808;DHT22;29438;50.664;10.098;2023-02-15T00:13:17;-3272.60;94.00
43808;DHT22;29438;50.664;10.098;2023-02-15T00:15:42;-3272.70;94.00
43808;DHT22;29438;50.664;10.098;2023-02-15T00:18:08;-3272.60;94.00
43808;DHT22;29438;50.664;10.098;2023-02-15T00:20:34;-3272.60;94.00
43808;DHT22;29438;50.664;10.098;2023-02-15T00:23:00;-3272.60;94.00
43808;DHT22;29438;50.664;10.098;2023-02-15T00:25:26;-3272.60;94.00
43808;DHT22;29438;50.664;10.098;2023-02-15T00:27:51;-3272.50;94.00
43808;DHT22;29438;50.664;10.098;2023-02-15T00:30:17;-3272.50;94.00
43808;DHT22;29438;50.664;10.098;2023-02-15T00:32:42;-3272.60;94.10
43808;DHT22;29438;50.664;10.098;2023-02-15T00:35:08;-3272.60;94.10
43808;DHT22;29438;50.664;10.098;2023-02-15T00:37:34;-3272.50;94.00
43808;DHT22;29438;50.664;10.098;2023-02-15T00:40:00;-3272.50;94.00
43808;DHT22;29438;50.664;10.098;2023-02-15T00:42:26;-3272.50;94.00
43808;DHT22;29438;50.664;10.098;2023-02-15T00:44:52;-3272.50;94.00
43808;DHT22;29438;50.664;10.098;2023-02-15T00:47:17;-3272.50;94.00
43808;DHT22;29438;50.664;10.098;2023-02-15T00:49:43;-3272.60;94.00
43808;DHT22;29438;50.664;10.098;2023-02-15T00:52:08;-3272.50;93.90
43808;DHT22;29438;50.664;10.098;2023-02-15T00:54:34;-3272.50;94.00
43808;DHT22;29438;50.664;10.098;2023-02-15T00:57:00;-3272.50;94.10
43808;DHT22;29438;50.664;10.098;2023-02-15T00:59:26;-3272.50;94.10
43808;DHT22;29438;50.664;10.098;2023-02-15T01:01:51;-3272.50;94.00
43808;DHT22;29438;50.664;10.098;2023-02-15T01:04:17;-3272.50;94.00
43808;DHT22;29438;50.664;10.098;2023-02-15T01:06:42;-3272.50;94.00
43808;DHT22;29438;50.664;10.098;2023-02-15T01:09:08;-3272.50;94.00
43808;DHT22;29438;50.664;10.098;2023-02-15T01:11:34;-3272.50;94.00
43808;DHT22;29438;50.664;10.098;2023-02-15T01:14:00;-3272.50;94.10
43808;DHT22;29438;50.664;10.098;2023-02-15T01:16:27;-3272.40;94.00
43808;DHT22;29438;50.664;10.098;2023-02-15T01:18:53;-3272.40;94.00
43808;DHT22;29438;50.664;10.098;2023-02-15T01:21:22;-3272.40;94.00
43808;DHT22;29438;50.664;10.098;2023-02-15T01:23:48;-3272.40;94.00
43808;DHT22;29438;50.664;10.098;2023-02-15T01:26:15;-3272.40;94.00
43808;DHT22;29438;50.664;10.098;2023-02-15T01:28:40;-3272.40;94.00
43808;DHT22;29438;50.664;10.098;2023-02-15T01:31:11;-3272.40;94.00
43808;DHT22;29438;50.664;10.098;2023-02-15T01:33:37;-3272.50;94.00
43808;DHT22;29438;50.664;10.098;2023-02-15T01:36:04;-3272.40;94.00
43808;DHT22;29438;50.664;10.098;2023-02-15T01:38:30;-3272.40;94.00
43808;DHT22;29438;50.664;10.098;2023-02-15T01:40:55;-3272.30;94.00
43808;DHT22;29438;50.664;10.098;2023-02-15T01:43:43;-3272.40;94.10
43808;DHT22;29438;50.664;10.098;2023-02-15T01:46:10;-3272.30;94.10
43808;DHT22;29438;50.664;10.098;2023-02-15T01:48:45;-3272.30;94.10
43808;DHT22;29438;50.664;10.098;2023-02-15T01:51:11;-3272.30;94.00
43808;DHT22;29438;50.664;10.098;2023-02-15T01:53:43;-3272.20;93.90
43808;DHT22;29438;50.664;10.098;2023-02-15T01:56:15;-3272.30;94.00
43808;DHT22;29438;50.664;10.098;2023-02-15T01:58:42;-3272.30;93.90
43808;DHT22;29438;50.664;10.098;2023-02-15T02:01:08;-3272.20;94.00
43808;DHT22;29438;50.664;10.098;2023-02-15T02:06:21;-3272.20;93.90
43808;DHT22;29438;50.664;10.098;2023-02-15T02:08:48;-3272.20;93.90
43808;DHT22;29438;50.664;10.098;2023-02-15T02:11:14;-3272.30;94.00
43808;DHT22;29438;50.664;10.098;2023-02-15T02:13:41;-3272.30;94.00
43808;DHT22;29438;50.664;10.098;2023-02-15T02:16:21;-3272.20;94.00
43808;DHT22;29438;50.664;10.098;2023-02-15T02:19:01;-3272.10;93.90
43808;DHT22;29438;50.664;10.098;2023-02-15T02:33:53;-3272.10;93.90
43808;DHT22;29438;50.664;10.098;2023-02-15T02:36:34;-3272.10;93.90
43808;DHT22;29438;50.664;10.098;2023-02-15T02:44:35;-3272.10;93.90
43808;DHT22;29438;50.664;10.098;2023-02-15T02:47:29;-3272.10;93.80
43808;DHT22;29438;50.664;10.098;2023-02-15T02:50:04;-3272.00;93.70
43808;DHT22;29438;50.664;10.098;2023-02-15T02:52:46;-3272.00;93.60
43808;DHT22;29438;50.664;10.098;2023-02-15T03:00:19;-3271.90;93.00
43808;DHT22;29438;50.664;10.098;2023-02-15T03:02:47;-3271.80;92.90
43808;DHT22;29438;50.664;10.098;2023-02-15T03:05:21;-3271.90;92.80
43808;DHT22;29438;50.664;10.098;2023-02-15T03:07:50;-3271.90;92.70
43808;DHT22;29438;50.664;10.098;2023-02-15T03:10:18;-3271.90;92.70
43808;DHT22;29438;50.664;10.098;2023-02-15T03:12:45;-3271.90;92.60
43808;DHT22;29438;50.664;10.098;2023-02-15T03:15:18;-3272.00;92.50
43808;DHT22;29438;50.664;10.098;2023-02-15T03:17:48;-3271.90;92.40
43808;DHT22;29438;50.664;10.098;2023-02-15T03:20:29;-3271.90;92.30
43808;DHT22;29438;50.664;10.098;2023-02-15T03:23:04;-3271.80;92.20
43808;DHT22;29438;50.664;10.098;2023-02-15T03:25:34;-3271.80;92.20
43808;DHT22;29438;50.664;10.098;2023-02-15T03:28:10;-3271.80;92.30
43808;DHT22;29438;50.664;10.098;2023-02-15T03:30:38;-3271.70;92.20
43808;DHT22;29438;50.664;10.098;2023-02-15T03:33:06;-3271.70;92.10
43808;DHT22;29438;50.664;10.098;2023-02-15T03:35:59;-3271.70;92.10
43808;DHT22;29438;50.664;10.098;2023-02-15T03:38:36;-3271.70;92.10
43808;DHT22;29438;50.664;10.098;2023-02-15T03:41:06;-3271.70;92.10
43808;DHT22;29438;50.664;10.098;2023-02-15T03:43:55;-3271.70;92.10
43808;DHT22;29438;50.664;10.098;2023-02-15T03:46:28;-3271.70;92.10
43808;DHT22;29438;50.664;10.098;2023-02-15T03:49:08;-3271.60;92.10
43808;DHT22;29438;50.664;10.098;2023-02-15T03:51:39;-3271.70;92.00
43808;DHT22;29438;50.664;10.098;2023-02-15T03:54:15;-3271.70;92.00
43808;DHT22;29438;50.664;10.098;2023-02-15T03:57:07;-3271.70;92.00
43808;DHT22;29438;50.664;10.098;2023-02-15T03:59:51;-3271.70;92.00
43808;DHT22;29438;50.664;10.098;2023-02-15T04:02:47;-3271.80;92.00
43808;DHT22;29438;50.664;10.098;2023-02-15T04:05:17;-3271.80;92.00
43808;DHT22;29438;50.664;10.098;2023-02-15T04:07:43;-3271.90;92.20
43808;DHT22;29438;50.664;10.098;2023-02-15T04:10:08;-3272.00;92.30
43808;DHT22;29438;50.664;10.098;2023-02-15T04:12:53;-3272.00;92.30
43808;DHT22;29438;50.664;10.098;2023-02-15T04:15:18;-3272.20;92.30
43808;DHT22;29438;50.664;10.098;2023-02-15T04:18:03;-3272.00;92.30
43808;DHT22;29438;50.664;10.098;2023-02-15T04:20:28;-3271.90;92.20
43808;DHT22;29438;50.664;10.098;2023-02-15T04:23:13;-3271.80;92.00
43808;DHT22;29438;50.664;10.098;2023-02-15T04:25:56;-3271.70;91.90
43808;DHT22;29438;50.664;10.098;2023-02-15T04:28:22;-3271.60;91.80
43808;DHT22;29438;50.664;10.098;2023-02-15T04:30:47;-3271.70;91.90
43808;DHT22;29438;50.664;10.098;2023-02-15T04:33:13;-3271.70;91.90
43808;DHT22;29438;50.664;10.098;2023-02-15T04:35:38;-3271.70;92.00
43808;DHT22;29438;50.664;10.098;2023-02-15T04:38:04;-3271.70;92.00
43808;DHT22;29438;50.664;10.098;2023-02-15T04:40:29;-3271.70;91.90
43808;DHT22;29438;50.664;10.098;2023-02-15T04:42:55;-3271.60;91.90
43808;DHT22;29438;50.664;10.098;2023-02-15T04:45:20;-3271.70;91.90
43808;DHT22;29438;50.664;10.098;2023-02-15T04:47:46;-3271.60;91.90
43808;DHT22;29438;50.664;10.098;2023-02-15T04:50:11;-3271.70;91.90
43808;DHT22;29438;50.664;10.098;2023-02-15T04:52:37;-3271.60;91.90
43808;DHT22;29438;50.664;10.098;2023-02-15T04:55:02;-3271.60;91.80
43808;DHT22;29438;50.664;10.098;2023-02-15T04:57:28;-3271.60;91.80
43808;DHT22;29438;50.664;10.098;2023-02-15T04:59:53;-3271.60;91.90
43808;DHT22;29438;50.664;10.098;2023-02-15T05:02:19;-3271.70;92.00
43808;DHT22;29438;50.664;10.098;2023-02-15T05:04:44;-3271.60;92.00
43808;DHT22;29438;50.664;10.098;2023-02-15T05:07:10;-3271.50;91.90
43808;DHT22;29438;50.664;10.098;2023-02-15T05:09:35;-3271.50;91.90
43808;DHT22;29438;50.664;10.098;2023-02-15T05:12:01;-3271.50;91.80
43808;DHT22;29438;50.664;10.098;2023-02-15T05:14:26;-3271.40;91.80
43808;DHT22;29438;50.664;10.098;2023-02-15T05:16:52;-3271.40;91.80
43808;DHT22;29438;50.664;10.098;2023-02-15T05:19:19;-3271.40;91.80
43808;DHT22;29438;50.664;10.098;2023-02-15T05:21:44;-3271.40;91.70
43808;DHT22;29438;50.664;10.098;2023-02-15T05:24:10;-3271.40;91.70
43808;DHT22;29438;50.664;10.098;2023-02-15T05:26:56;-3271.40;91.80
43808;DHT22;29438;50.664;10.098;2023-02-15T05:29:40;-3271.40;91.70
43808;DHT22;29438;50.664;10.098;2023-02-15T05:32:05;-3271.40;91.80
43808;DHT22;29438;50.664;10.098;2023-02-15T05:34:31;-3271.50;91.80
43808;DHT22;29438;50.664;10.098;2023-02-15T05:36:57;-3271.50;91.90
43808;DHT22;29438;50.664;10.098;2023-02-15T05:39:22;-3271.60;91.80
43808;DHT22;29438;50.664;10.098;2023-02-15T05:41:48;-3271.50;91.80
43808;DHT22;29438;50.664;10.098;2023-02-15T05:44:13;-3271.40;91.70
43808;DHT22;29438;50.664;10.098;2023-02-15T05:46:39;-3271.40;91.70
43808;DHT22;29438;50.664;10.098;2023-02-15T05:49:04;-3271.40;91.70
43808;DHT22;29438;50.664;10.098;2023-02-15T05:51:30;-3271.40;91.70
43808;DHT22;29438;50.664;10.098;2023-02-15T05:53:55;-3271.40;91.70
43808;DHT22;29438;50.664;10.098;2023-02-15T05:56:20;-3271.40;91.70
43808;DHT22;29438;50.664;10.098;2023-02-15T05:58:46;-3271.50;91.80
43808;DHT22;29438;50.664;10.098;2023-02-15T06:01:16;-3271.40;91.80
43808;DHT22;29438;50.664;10.098;2023-02-15T06:03:43;-3271.40;91.80
43808;DHT22;29438;50.664;10.098;2023-02-15T06:06:08;-3271.40;91.80
43808;DHT22;29438;50.664;10.098;2023-02-15T06:08:35;-3271.30;91.70
43808;DHT22;29438;50.664;10.098;2023-02-15T06:11:01;-3271.30;91.60
43808;DHT22;29438;50.664;10.098;2023-02-15T06:13:26;-3271.40;91.70
43808;DHT22;29438;50.664;10.098;2023-02-15T06:15:52;-3271.50;91.80
43808;DHT22;29438;50.664;10.098;2023-02-15T06:18:17;-3271.50;91.90
43808;DHT22;29438;50.664;10.098;2023-02-15T06:20:45;-3271.50;91.80
43808;DHT22;29438;50.664;10.098;2023-02-15T06:23:11;-3271.40;91.80
43808;DHT22;29438;50.664;10.098;2023-02-15T06:25:36;-3271.40;91.80
43808;DHT22;29438;50.664;10.098;2023-02-15T06:28:02;-3271.40;91.80
43808;DHT22;29438;50.664;10.098;2023-02-15T06:30:27;-3271.40;91.80
43808;DHT22;29438;50.664;10.098;2023-02-15T06:32:53;-3271.40;91.90
43808;DHT22;29438;50.664;10.098;2023-02-15T06:35:18;-3271.40;91.80
43808;DHT22;29438;50.664;10.098;2023-02-15T06:37:45;-3271.40;91.90
43808;DHT22;29438;50.664;10.098;2023-02-15T06:40:11;-3271.50;92.00
43808;DHT22;29438;50.664;10.098;2023-02-15T06:42:37;-3271.50;92.00
43808;DHT22;29438;50.664;10.098;2023-02-15T06:45:03;-3271.50;92.00
43808;DHT22;29438;50.664;10.098;2023-02-15T06:47:29;-3271.60;92.00
43808;DHT22;29438;50.664;10.098;2023-02-15T06:49:54;-3271.60;92.00
43808;DHT22;29438;50.664;10.098;2023-02-15T06:52:20;-3271.60;92.10
43808;DHT22;29438;50.664;10.098;2023-02-15T06:54:45;-3271.60;92.10
43808;DHT22;29438;50.664;10.098;2023-02-15T06:57:11;-3271.80;92.20
43808;DHT22;29438;50.664;10.098;2023-02-15T06:59:36;-3271.80;92.30
43808;DHT22;29438;50.664;10.098;2023-02-15T07:02:02;-3271.90;92.30
43808;DHT22;29438;50.664;10.098;2023-02-15T07:04:27;-3272.00;92.50
43808;DHT22;29438;50.664;10.098;2023-02-15T07:06:54;-3272.10;92.50
43808;DHT22;29438;50.664;10.098;2023-02-15T07:09:20;-3272.20;92.60
43808;DHT22;29438;50.664;10.098;2023-02-15T07:11:46;-3272.30;92.70
43808;DHT22;29438;50.664;10.098;2023-02-15T07:14:30;-3272.40;92.80
43808;DHT22;29438;50.664;10.098;2023-02-15T07:16:56;-3272.50;93.00
43808;DHT22;29438;50.664;10.098;2023-02-15T07:19:21;-3273.00;93.80
43808;DHT22;29438;50.664;10.098;2023-02-15T07:21:47;-3273.40;94.00
43808;DHT22;29438;50.664;10.098;2023-02-15T07:24:12;-3273.80;94.50
43808;DHT22;29438;50.664;10.098;2023-02-15T07:26:38;-3274.50;95.10
43808;DHT22;29438;50.664;10.098;2023-02-15T07:29:04;-3274.90;95.60
43808;DHT22;29438;50.664;10.098;2023-02-15T07:31:29;-3276.10;96.00
43808;DHT22;29438;50.664;10.098;2023-02-15T07:33:55;0.30;96.40
43808;DHT22;29438;50.664;10.098;2023-02-15T07:36:20;0.60;96.10
43808;DHT22;29438;50.664;10.098;2023-02-15T07:38:46;0.20;94.90
43808;DHT22;29438;50.664;10.098;2023-02-15T07:41:13;-3276.50;94.50
43808;DHT22;29438;50.664;10.098;2023-02-15T07:43:41;-3276.50;94.10
43808;DHT22;29438;50.664;10.098;2023-02-15T07:46:10;0.00;94.20
43808;DHT22;29438;50.664;10.098;2023-02-15T07:48:37;0.40;94.30
43808;DHT22;29438;50.664;10.098;2023-02-15T07:51:05;1.10;93.40
43808;DHT22;29438;50.664;10.098;2023-02-15T07:53:32;1.40;91.90
43808;DHT22;29438;50.664;10.098;2023-02-15T07:56:02;1.30;89.50
43808;DHT22;29438;50.664;10.098;2023-02-15T07:58:28;1.30;87.90
43808;DHT22;29438;50.664;10.098;2023-02-15T08:01:13;1.10;86.20
43808;DHT22;29438;50.664;10.098;2023-02-15T08:03:39;1.30;84.70
43808;DHT22;29438;50.664;10.098;2023-02-15T08:06:04;1.60;83.00
43808;DHT22;29438;50.664;10.098;2023-02-15T08:08:30;1.90;81.80
43808;DHT22;29438;50.664;10.098;2023-02-15T08:10:59;2.80;81.00
43808;DHT22;29438;50.664;10.098;2023-02-15T08:13:45;2.20;78.30
43808;DHT22;29438;50.664;10.098;2023-02-15T08:16:40;1.90;79.80
43808;DHT22;29438;50.664;10.098;2023-02-15T08:21:44;2.50;79.60
43808;DHT22;29438;50.664;10.098;2023-02-15T08:24:11;3.30;79.80
43808;DHT22;29438;50.664;10.098;2023-02-15T08:26:38;3.50;78.70
43808;DHT22;29438;50.664;10.098;2023-02-15T08:29:04;3.60;77.60
43808;DHT22;29438;50.664;10.098;2023-02-15T08:31:32;4.00;76.40
43808;DHT22;29438;50.664;10.098;2023-02-15T08:33:58;4.30;74.30
43808;DHT22;29438;50.664;10.098;2023-02-15T08:36:26;4.40;73.20
43808;DHT22;29438;50.664;10.098;2023-02-15T08:38:52;4.10;72.50
43808;DHT22;29438;50.664;10.098;2023-02-15T08:41:38;4.10;71.70
43808;DHT22;29438;50.664;10.098;2023-02-15T08:44:06;3.80;73.10
43808;DHT22;29438;50.664;10.098;2023-02-15T08:46:35;3.70;73.20
43808;DHT22;29438;50.664;10.098;2023-02-15T08:49:01;3.60;72.90
43808;DHT22;29438;50.664;10.098;2023-02-15T08:51:30;3.70;74.30
43808;DHT22;29438;50.664;10.098;2023-02-15T08:53:58;3.90;73.30
43808;DHT22;29438;50.664;10.098;2023-02-15T08:56:29;3.60;73.10
43808;DHT22;29438;50.664;10.098;2023-02-15T08:58:55;3.80;73.50
43808;DHT22;29438;50.664;10.098;2023-02-15T09:01:23;3.60;73.50
43808;DHT22;29438;50.664;10.098;2023-02-15T09:03:51;3.70;74.00
43808;DHT22;29438;50.664;10.098;2023-02-15T09:06:20;3.90;72.50
43808;DHT22;29438;50.664;10.098;2023-02-15T09:08:47;3.90;71.40
43808;DHT22;29438;50.664;10.098;2023-02-15T09:11:15;4.00;73.00
43808;DHT22;29438;50.664;10.098;2023-02-15T09:13:49;4.10;71.50
43808;DHT22;29438;50.664;10.098;2023-02-15T09:16:15;4.00;72.90
43808;DHT22;29438;50.664;10.098;2023-02-15T09:18:44;3.80;74.10
43808;DHT22;29438;50.664;10.098;2023-02-15T09:21:12;3.90;73.50
43808;DHT22;29438;50.664;10.098;2023-02-15T09:23:42;4.30;71.70
43808;DHT22;29438;50.664;10.098;2023-02-15T09:26:10;4.50;71.00
43808;DHT22;29438;50.664;10.098;2023-02-15T09:28:36;4.10;71.50
43808;DHT22;29438;50.664;10.098;2023-02-15T09:31:17;4.10;73.60
43808;DHT22;29438;50.664;10.098;2023-02-15T09:33:43;3.50;73.50
43808;DHT22;29438;50.664;10.098;2023-02-15T09:36:22;3.20;74.00
43808;DHT22;29438;50.664;10.098;2023-02-15T09:38:55;3.00;75.70
43808;DHT22;29438;50.664;10.098;2023-02-15T09:47:55;3.70;74.60
43808;DHT22;29438;50.664;10.098;2023-02-15T09:50:32;4.40;73.20
43808;DHT22;29438;50.664;10.098;2023-02-15T09:56:10;3.90;72.30
43808;DHT22;29438;50.664;10.098;2023-02-15T10:01:48;3.40;75.70
43808;DHT22;29438;50.664;10.098;2023-02-15T10:04:40;3.80;75.10
43808;DHT22;29438;50.664;10.098;2023-02-15T10:07:22;4.20;73.00
43808;DHT22;29438;50.664;10.098;2023-02-15T10:09:53;4.20;73.30
43808;DHT22;29438;50.664;10.098;2023-02-15T10:15:08;4.60;71.80
43808;DHT22;29438;50.664;10.098;2023-02-15T10:28:23;4.20;71.70
43808;DHT22;29438;50.664;10.098;2023-02-15T10:30:55;4.00;73.20
43808;DHT22;29438;50.664;10.098;2023-02-15T10:33:39;4.00;75.30
43808;DHT22;29438;50.664;10.098;2023-02-15T10:39:31;3.80;74.40
43808;DHT22;29438;50.664;10.098;2023-02-15T10:42:17;3.60;75.40
43808;DHT22;29438;50.664;10.098;2023-02-15T10:45:16;3.70;75.50
43808;DHT22;29438;50.664;10.098;2023-02-15T10:50:51;3.90;76.20
43808;DHT22;29438;50.664;10.098;2023-02-15T11:04:30;3.20;76.80
43808;DHT22;29438;50.664;10.098;2023-02-15T11:07:00;3.20;77.90
43808;DHT22;29438;50.664;10.098;2023-02-15T11:09:36;3.30;78.10
43808;DHT22;29438;50.664;10.098;2023-02-15T11:12:10;3.40;77.50
43808;DHT22;29438;50.664;10.098;2023-02-15T11:17:13;3.50;77.10
43808;DHT22;29438;50.664;10.098;2023-02-15T11:20:02;3.50;77.50
43808;DHT22;29438;50.664;10.098;2023-02-15T11:22:32;3.40;77.40
43808;DHT22;29438;50.664;10.098;2023-02-15T11:25:00;3.30;77.70
43808;DHT22;29438;50.664;10.098;2023-02-15T11:27:31;3.20;78.30
43808;DHT22;29438;50.664;10.098;2023-02-15T11:30:05;3.20;78.80
43808;DHT22;29438;50.664;10.098;2023-02-15T11:32:38;3.30;78.70
43808;DHT22;29438;50.664;10.098;2023-02-15T11:37:49;2.80;80.30
43808;DHT22;29438;50.664;10.098;2023-02-15T11:40:23;2.80;80.60
43808;DHT22;29438;50.664;10.098;2023-02-15T11:42:52;2.90;80.50
43808;DHT22;29438;50.664;10.098;2023-02-15T11:45:30;2.70;80.80
43808;DHT22;29438;50.664;10.098;2023-02-15T11:47:57;2.60;81.00
43808;DHT22;29438;50.664;10.098;2023-02-15T11:50:26;2.70;81.50
43808;DHT22;29438;50.664;10.098;2023-02-15T11:52:58;2.80;80.40
43808;DHT22;29438;50.664;10.098;2023-02-15T11:55:23;2.70;80.30
43808;DHT22;29438;50.664;10.098;2023-02-15T11:58:23;2.80;81.40
43808;DHT22;29438;50.664;10.098;2023-02-15T12:01:00;2.30;81.40
43808;DHT22;29438;50.664;10.098;2023-02-15T12:06:16;2.40;82.00
43808;DHT22;29438;50.664;10.098;2023-02-15T12:08:51;2.60;81.90
43808;DHT22;29438;50.664;10.098;2023-02-15T12:11:22;2.80;81.40
43808;DHT22;29438;50.664;10.098;2023-02-15T12:16:21;2.80;82.00
43808;DHT22;29438;50.664;10.098;2023-02-15T12:18:47;2.30;81.60
43808;DHT22;29438;50.664;10.098;2023-02-15T12:21:16;2.30;82.30
43808;DHT22;29438;50.664;10.098;2023-02-15T12:23:55;2.30;82.90
43808;DHT22;29438;50.664;10.098;2023-02-15T12:26:34;2.60;83.10
43808;DHT22;29438;50.664;10.098;2023-02-15T12:29:06;2.60;82.00
43808;DHT22;29438;50.664;10.098;2023-02-15T12:31:39;2.20;83.40
43808;DHT22;29438;50.664;10.098;2023-02-15T12:34:21;2.60;83.60
43808;DHT22;29438;50.664;10.098;2023-02-15T12:36:51;2.50;82.20
43808;DHT22;29438;50.664;10.098;2023-02-15T12:39:25;2.30;82.80
43808;DHT22;29438;50.664;10.098;2023-02-15T12:44:27;2.60;82.50
43808;DHT22;29438;50.664;10.098;2023-02-15T12:49:37;2.70;82.60
43808;DHT22;29438;50.664;10.098;2023-02-15T12:52:24;2.40;83.30
43808;DHT22;29438;50.664;10.098;2023-02-15T12:54:50;2.60;83.70
43808;DHT22;29438;50.664;10.098;2023-02-15T12:57:30;2.50;82.40
43808;DHT22;29438;50.664;10.098;2023-02-15T13:02:52;2.70;83.10
43808;DHT22;29438;50.664;10.098;2023-02-15T13:05:37;2.70;83.10
43808;DHT22;29438;50.664;10.098;2023-02-15T13:08:18;2.50;83.70
43808;DHT22;29438;50.664;10.098;2023-02-15T13:11:07;2.60;83.40
43808;DHT22;29438;50.664;10.098;2023-02-15T13:13:45;2.60;83.30
43808;DHT22;29438;50.664;10.098;2023-02-15T13:16:13;2.40;83.90
43808;DHT22;29438;50.664;10.098;2023-02-15T13:18:43;2.50;84.10
43808;DHT22;29438;50.664;10.098;2023-02-15T13:21:12;2.80;84.50
43808;DHT22;29438;50.664;10.098;2023-02-15T13:23:44;2.70;83.40
43808;DHT22;29438;50.664;10.098;2023-02-15T13:26:15;2.60;83.80
43808;DHT22;29438;50.664;10.098;2023-02-15T13:28:49;2.70;83.90
43808;DHT22;29438;50.664;10.098;2023-02-15T13:31:23;2.80;84.00
43808;DHT22;29438;50.664;10.098;2023-02-15T13:33:56;2.70;83.40
43808;DHT22;29438;50.664;10.098;2023-02-15T13:39:22;2.80;83.80
43808;DHT22;29438;50.664;10.098;2023-02-15T13:50:43;2.50;84.50
43808;DHT22;29438;50.664;10.098;2023-02-15T13:59:12;2.30;85.00
43808;DHT22;29438;50.664;10.098;2023-02-15T14:01:58;2.30;85.00
43808;DHT22;29438;50.664;10.098;2023-02-15T14:04:43;2.30;85.30
43808;DHT22;29438;50.664;10.098;2023-02-15T14:07:31;2.20;85.10
43808;DHT22;29438;50.664;10.098;2023-02-15T14:13:27;2.00;86.00
43808;DHT22;29438;50.664;10.098;2023-02-15T14:16:04;2.00;86.30
43808;DHT22;29438;50.664;10.098;2023-02-15T14:18:48;2.00;86.30
43808;DHT22;29438;50.664;10.098;2023-02-15T14:21:21;2.00;86.40
43808;DHT22;29438;50.664;10.098;2023-02-15T14:26:50;1.80;86.60
43808;DHT22;29438;50.664;10.098;2023-02-15T14:32:20;1.60;87.50
43808;DHT22;29438;50.664;10.098;2023-02-15T14:34:52;1.70;87.50
43808;DHT22;29438;50.664;10.098;2023-02-15T14:38:07;1.80;87.20
43808;DHT22;29438;50.664;10.098;2023-02-15T14:48:48;1.60;87.20
43808;DHT22;29438;50.664;10.098;2023-02-15T14:54:07;1.50;87.60
43808;DHT22;29438;50.664;10.098;2023-02-15T14:56:32;1.50;87.80
43808;DHT22;29438;50.664;10.098;2023-02-15T14:59:01;1.40;87.70
43808;DHT22;29438;50.664;10.098;2023-02-15T15:01:35;1.40;87.90
43808;DHT22;29438;50.664;10.098;2023-02-15T15:04:05;1.40;87.80
43808;DHT22;29438;50.664;10.098;2023-02-15T15:06:36;1.50;87.70
43808;DHT22;29438;50.664;10.098;2023-02-15T15:09:48;1.50;87.80
43808;DHT22;29438;50.664;10.098;2023-02-15T15:12:36;1.50;87.70
43808;DHT22;29438;50.664;10.098;2023-02-15T15:15:03;1.50;87.60
43808;DHT22;29438;50.664;10.098;2023-02-15T15:20:49;1.00;88.40
43808;DHT22;29438;50.664;10.098;2023-02-15T15:31:50;0.80;89.00
43808;DHT22;29438;50.664;10.098;2023-02-15T15:37:26;0.60;89.30
43808;DHT22;29438;50.664;10.098;2023-02-15T15:40:21;0.50;89.50
43808;DHT22;29438;50.664;10.098;2023-02-15T15:43:29;0.50;89.80
43808;DHT22;29438;50.664;10.098;2023-02-15T15:48:38;0.40;90.10
43808;DHT22;29438;50.664;10.098;2023-02-15T15:51:27;0.40;90.10
43808;DHT22;29438;50.664;10.098;2023-02-15T15:53:54;0.30;90.20
43808;DHT22;29438;50.664;10.098;2023-02-15T15:56:27;0.20;90.30
43808;DHT22;29438;50.664;10.098;2023-02-15T15:58:58;0.00;90.50
43808;DHT22;29438;50.664;10.098;2023-02-15T16:01:27;0.00;90.80
43808;DHT22;29438;50.664;10.098;2023-02-15T16:03:55;-3276.70;91.10
43808;DHT22;29438;50.664;10.098;2023-02-15T16:06:30;-3276.60;91.20
43808;DHT22;29438;50.664;10.098;2023-02-15T16:08:55;-3276.50;91.40
43808;DHT22;29438;50.664;10.098;2023-02-15T16:11:24;-3276.40;91.60
43808;DHT22;29438;50.664;10.098;2023-02-15T16:13:50;-3276.30;91.80
43808;DHT22;29438;50.664;10.098;2023-02-15T16:16:28;-3276.20;91.90
43808;DHT22;29438;50.664;10.098;2023-02-15T16:18:55;-3276.20;92.00
43808;DHT22;29438;50.664;10.098;2023-02-15T16:21:27;-3276.20;92.10
43808;DHT22;29438;50.664;10.098;2023-02-15T16:23:57;-3276.20;92.20
43808;DHT22;29438;50.664;10.098;2023-02-15T16:26:54;-3276.20;92.30
43808;DHT22;29438;50.664;10.098;2023-02-15T16:29:29;-3276.20;92.40
43808;DHT22;29438;50.664;10.098;2023-02-15T16:32:25;-3276.10;92.60
43808;DHT22;29438;50.664;10.098;2023-02-15T16:34:57;-3276.10;92.80
43808;DHT22;29438;50.664;10.098;2023-02-15T16:37:24;-3276.00;92.90
43808;DHT22;29438;50.664;10.098;2023-02-15T16:39:53;-3275.90;92.80
43808;DHT22;29438;50.664;10.098;2023-02-15T16:42:20;-3275.80;92.90
43808;DHT22;29438;50.664;10.098;2023-02-15T16:44:48;-3275.70;92.90
43808;DHT22;29438;50.664;10.098;2023-02-15T16:47:24;-3275.80;93.00
43808;DHT22;29438;50.664;10.098;2023-02-15T16:49:52;-3275.80;93.20
43808;DHT22;29438;50.664;10.098;2023-02-15T16:52:23;-3275.80;93.10
43808;DHT22;29438;50.664;10.098;2023-02-15T16:54:56;-3275.70;93.10
43808;DHT22;29438;50.664;10.098;2023-02-15T16:57:26;-3275.60;93.10
43808;DHT22;29438;50.664;10.098;2023-02-15T16:59:53;-3275.60;93.10
43808;DHT22;29438;50.664;10.098;2023-02-15T17:02:27;-3275.50;93.20
43808;DHT22;29438;50.664;10.098;2023-02-15T17:05:07;-3275.40;93.30
43808;DHT22;29438;50.664;10.098;2023-02-15T17:10:36;-3275.40;93.40
43808;DHT22;29438;50.664;10.098;2023-02-15T17:13:04;-3275.40;93.40
43808;DHT22;29438;50.664;10.098;2023-02-15T17:15:40;-3275.30;93.40
43808;DHT22;29438;50.664;10.098;2023-02-15T17:18:11;-3275.40;93.50
43808;DHT22;29438;50.664;10.098;2023-02-15T17:20:38;-3275.40;93.60
43808;DHT22;29438;50.664;10.098;2023-02-15T17:25:45;-3275.30;93.70
43808;DHT22;29438;50.664;10.098;2023-02-15T17:28:24;-3275.30;93.70
43808;DHT22;29438;50.664;10.098;2023-02-15T17:30:52;-3275.30;93.70
43808;DHT22;29438;50.664;10.098;2023-02-15T17:33:22;-3275.20;93.60
43808;DHT22;29438;50.664;10.098;2023-02-15T17:38:35;-3275.30;93.90
43808;DHT22;29438;50.664;10.098;2023-02-15T17:41:01;-3275.30;93.90
43808;DHT22;29438;50.664;10.098;2023-02-15T17:43:27;-3275.30;93.90
43808;DHT22;29438;50.664;10.098;2023-02-15T17:45:53;-3275.30;94.00
43808;DHT22;29438;50.664;10.098;2023-02-15T17:48:40;-3275.20;93.90
43808;DHT22;29438;50.664;10.098;2023-02-15T17:51:11;-3275.20;94.00
43808;DHT22;29438;50.664;10.098;2023-02-15T17:53:37;-3275.10;94.00
43808;DHT22;29438;50.664;10.098;2023-02-15T17:56:03;-3275.20;94.00